sensor_id;sensor_type;location;lat;lon;timestamp;temperature;humidity
1461;DHT22;724;49.910;12.530;2023-09-19T00:01:39;14.50;99.90
1461;DHT22;724;49.910;12.530;2023-09-19T00:04:07;14.60;99.90
1461;DHT22;724;49.910;12.530;2023-09-19T00:06:35;14.60;99.90
1461;DHT22;724;49.910;12.530;2023-09-19T00:09:02;14.50;99.90
1461;DHT22;724;49.910;12.530;2023-09-19T00:11:29;14.50;99.90
1461;DHT22;724;49.910;12.530;2023-09-19T00:13:56;14.50;99.90
1461;DHT22;724;49.910;12.530;2023-09-19T00:16:25;14.50;99.90
1461;DHT22;724;49.910;12.530;2023-09-19T00:18:52;14.50;99.90
1461;DHT22;724;49.910;12.530;2023-09-19T01:14:15;14.60;99.90
1461;DHT22;724;49.910;12.530;2023-09-19T01:16:50;14.60;99.90
1461;DHT22;724;49.910;12.530;2023-09-19T01:22:46;14.60;99.90
1461;DHT22;724;49.910;12.530;2023-09-19T01:39:02;14.40;99.90
1461;DHT22;724;49.910;12.530;2023-09-19T01:41:47;14.40;99.90
1461;DHT22;724;49.910;12.530;2023-09-19T01:44:25;14.40;99.90
1461;DHT22;724;49.910;12.530;2023-09-19T01:46:59;14.40;99.90
1461;DHT22;724;49.910;12.530;2023-09-19T01:49:36;14.40;99.90
1461;DHT22;724;49.910;12.530;2023-09-19T01:52:09;14.30;99.90
1461;DHT22;724;49.910;12.530;2023-09-19T01:54:46;14.30;99.90
1461;DHT22;724;49.910;12.530;2023-09-19T01:57:17;14.40;99.90
1461;DHT22;724;49.910;12.530;2023-09-19T01:59:52;14.30;99.90
1461;DHT22;724;49.910;12.530;2023-09-19T02:02:22;14.30;99.90
1461;DHT22;724;49.910;12.530;2023-09-19T02:04:49;14.20;99.90
1461;DHT22;724;49.910;12.530;2023-09-19T02:07:17;14.20;99.90
1461;DHT22;724;49.910;12.530;2023-09-19T02:09:45;14.20;99.90
1461;DHT22;724;49.910;12.530;2023-09-19T02:12:13;14.20;99.90
1461;DHT22;724;49.910;12.530;2023-09-19T02:14:41;14.20;99.90
1461;DHT22;724;49.910;12.530;2023-09-19T02:17:07;14.20;99.90
1461;DHT22;724;49.910;12.530;2023-09-19T02:19:37;14.20;99.90
1461;DHT22;724;49.910;12.530;2023-09-19T02:48:04;13.90;99.90
1461;DHT22;724;49.910;12.530;2023-09-19T02:50:32;14.00;99.90
1461;DHT22;724;49.910;12.530;2023-09-19T02:53:00;14.00;99.90
1461;DHT22;724;49.910;12.530;2023-09-19T02:55:27;13.90;99.90
1461;DHT22;724;49.910;12.530;2023-09-19T02:57:54;14.00;99.90
1461;DHT22;724;49.910;12.530;2023-09-19T03:02:56;13.90;99.90
1461;DHT22;724;49.910;12.530;2023-09-19T03:05:25;13.90;99.90
1461;DHT22;724;49.910;12.530;2023-09-19T03:07:56;13.90;99.90
1461;DHT22;724;49.910;12.530;2023-09-19T03:10:26;13.80;99.90
1461;DHT22;724;49.910;12.530;2023-09-19T03:12:53;13.90;99.90
1461;DHT22;724;49.910;12.530;2023-09-19T03:25:43;13.80;99.90
1461;DHT22;724;49.910;12.530;2023-09-19T03:28:10;13.80;99.90
1461;DHT22;724;49.910;12.530;2023-09-19T03:30:37;13.80;99.90
1461;DHT22;724;49.910;12.530;2023-09-19T03:33:04;13.80;99.90
1461;DHT22;724;49.910;12.530;2023-09-19T03:35:31;13.80;99.90
1461;DHT22;724;49.910;12.530;2023-09-19T03:37:58;13.80;99.90
1461;DHT22;724;49.910;12.530;2023-09-19T03:40:25;13.80;99.90
1461;DHT22;724;49.910;12.530;2023-09-19T03:42:53;13.70;99.90
1461;DHT22;724;49.910;12.530;2023-09-19T03:45:23;13.80;99.90
1461;DHT22;724;49.910;12.530;2023-09-19T03:47:50;13.70;99.90
1461;DHT22;724;49.910;12.530;2023-09-19T03:50:16;13.70;99.90
1461;DHT22;724;49.910;12.530;2023-09-19T03:52:43;13.70;99.90
1461;DHT22;724;49.910;12.530;2023-09-19T03:55:10;13.70;99.90
1461;DHT22;724;49.910;12.530;2023-09-19T03:57:37;13.70;99.90
1461;DHT22;724;49.910;12.530;2023-09-19T04:00:06;13.70;99.90
1461;DHT22;724;49.910;12.530;2023-09-19T04:02:37;13.70;99.90
1461;DHT22;724;49.910;12.530;2023-09-19T04:05:06;13.80;99.90
1461;DHT22;724;49.910;12.530;2023-09-19T04:07:33;13.70;99.90
1461;DHT22;724;49.910;12.530;2023-09-19T04:10:00;13.80;99.90
1461;DHT22;724;49.910;12.530;2023-09-19T04:12:28;13.70;99.90
1461;DHT22;724;49.910;12.530;2023-09-19T04:14:55;13.80;99.90
1461;DHT22;724;49.910;12.530;2023-09-19T04:17:23;13.80;99.90
1461;DHT22;724;49.910;12.530;2023-09-19T04:19:50;13.80;99.90
1461;DHT22;724;49.910;12.530;2023-09-19T04:22:17;13.80;99.90
1461;DHT22;724;49.910;12.530;2023-09-19T04:24:44;13.80;99.90
1461;DHT22;724;49.910;12.530;2023-09-19T04:27:10;13.80;99.90
1461;DHT22;724;49.910;12.530;2023-09-19T04:29:40;13.80;99.90
1461;DHT22;724;49.910;12.530;2023-09-19T04:32:07;13.80;99.90
1461;DHT22;724;49.910;12.530;2023-09-19T04:34:36;13.80;99.90
1461;DHT22;724;49.910;12.530;2023-09-19T04:37:04;13.80;99.90
1461;DHT22;724;49.910;12.530;2023-09-19T04:39:31;13.80;99.90
1461;DHT22;724;49.910;12.530;2023-09-19T04:41:57;13.80;99.90
1461;DHT22;724;49.910;12.530;2023-09-19T04:44:25;13.80;99.90
1461;DHT22;724;49.910;12.530;2023-09-19T04:46:51;13.80;99.90
1461;DHT22;724;49.910;12.530;2023-09-19T04:49:18;13.90;99.90
1461;DHT22;724;49.910;12.530;2023-09-19T04:51:46;13.80;99.90
1461;DHT22;724;49.910;12.530;2023-09-19T04:54:13;13.70;99.90
1461;DHT22;724;49.910;12.530;2023-09-19T04:56:41;13.80;99.90
1461;DHT22;724;49.910;12.530;2023-09-19T04:59:08;13.70;99.90
1461;DHT22;724;49.910;12.530;2023-09-19T05:01:36;13.70;99.90
1461;DHT22;724;49.910;12.530;2023-09-19T05:04:03;13.80;99.90
1461;DHT22;724;49.910;12.530;2023-09-19T05:06:30;13.80;99.90
1461;DHT22;724;49.910;12.530;2023-09-19T05:08:59;13.70;99.90
1461;DHT22;724;49.910;12.530;2023-09-19T05:11:26;13.70;99.90
1461;DHT22;724;49.910;12.530;2023-09-19T05:13:56;13.70;99.90
1461;DHT22;724;49.910;12.530;2023-09-19T05:16:22;13.70;99.90
1461;DHT22;724;49.910;12.530;2023-09-19T05:18:49;13.70;99.90
1461;DHT22;724;49.910;12.530;2023-09-19T05:21:16;13.70;99.90
1461;DHT22;724;49.910;12.530;2023-09-19T05:23:43;13.70;99.90
1461;DHT22;724;49.910;12.530;2023-09-19T05:26:11;13.80;99.90
1461;DHT22;724;49.910;12.530;2023-09-19T05:28:38;13.70;99.90
1461;DHT22;724;49.910;12.530;2023-09-19T05:31:05;13.70;99.90
1461;DHT22;724;49.910;12.530;2023-09-19T05:33:32;13.70;99.90
1461;DHT22;724;49.910;12.530;2023-09-19T05:35:58;13.70;99.90
1461;DHT22;724;49.910;12.530;2023-09-19T05:38:25;13.70;99.90
1461;DHT22;724;49.910;12.530;2023-09-19T05:40:52;13.70;99.90
1461;DHT22;724;49.910;12.530;2023-09-19T05:43:21;13.80;99.90
1461;DHT22;724;49.910;12.530;2023-09-19T05:45:47;13.70;99.90
1461;DHT22;724;49.910;12.530;2023-09-19T05:48:17;13.70;99.90
1461;DHT22;724;49.910;12.530;2023-09-19T05:50:46;13.80;99.90
1461;DHT22;724;49.910;12.530;2023-09-19T05:53:14;13.70;99.90
1461;DHT22;724;49.910;12.530;2023-09-19T05:55:41;13.80;99.90
1461;DHT22;724;49.910;12.530;2023-09-19T05:58:08;13.80;99.90
1461;DHT22;724;49.910;12.530;2023-09-19T06:00:36;13.80;99.90
1461;DHT22;724;49.910;12.530;2023-09-19T06:03:03;13.80;99.90
1461;DHT22;724;49.910;12.530;2023-09-19T06:05:30;13.80;99.90
1461;DHT22;724;49.910;12.530;2023-09-19T06:07:57;13.80;99.90
1461;DHT22;724;49.910;12.530;2023-09-19T06:10:26;13.80;99.90
1461;DHT22;724;49.910;12.530;2023-09-19T06:12:54;13.80;99.90
1461;DHT22;724;49.910;12.530;2023-09-19T06:15:23;13.80;99.90
1461;DHT22;724;49.910;12.530;2023-09-19T06:17:52;13.80;99.90
1461;DHT22;724;49.910;12.530;2023-09-19T06:20:20;13.80;99.90
1461;DHT22;724;49.910;12.530;2023-09-19T06:22:48;13.80;99.90
1461;DHT22;724;49.910;12.530;2023-09-19T06:25:16;13.80;99.90
1461;DHT22;724;49.910;12.530;2023-09-19T06:27:44;13.80;99.90
1461;DHT22;724;49.910;12.530;2023-09-19T06:30:11;13.80;99.90
1461;DHT22;724;49.910;12.530;2023-09-19T06:32:39;13.80;99.90
1461;DHT22;724;49.910;12.530;2023-09-19T06:35:11;13.80;99.90
1461;DHT22;724;49.910;12.530;2023-09-19T06:37:38;13.80;99.90
1461;DHT22;724;49.910;12.530;2023-09-19T06:40:07;13.90;99.90
1461;DHT22;724;49.910;12.530;2023-09-19T06:42:39;13.90;99.90
1461;DHT22;724;49.910;12.530;2023-09-19T06:45:07;13.90;99.90
1461;DHT22;724;49.910;12.530;2023-09-19T06:47:34;13.80;99.90
1461;DHT22;724;49.910;12.530;2023-09-19T06:50:02;13.90;99.90
1461;DHT22;724;49.910;12.530;2023-09-19T06:52:32;14.00;99.90
1461;DHT22;724;49.910;12.530;2023-09-19T06:54:59;13.90;99.90
1461;DHT22;724;49.910;12.530;2023-09-19T06:57:28;14.10;99.90
1461;DHT22;724;49.910;12.530;2023-09-19T06:59:56;14.20;99.90
1461;DHT22;724;49.910;12.530;2023-09-19T07:02:22;14.30;99.90
1461;DHT22;724;49.910;12.530;2023-09-19T07:04:49;14.60;99.90
1461;DHT22;724;49.910;12.530;2023-09-19T07:07:17;14.70;99.90
1461;DHT22;724;49.910;12.530;2023-09-19T07:09:45;15.50;99.90
1461;DHT22;724;49.910;12.530;2023-09-19T07:12:14;15.30;62.60
1461;DHT22;724;49.910;12.530;2023-09-19T07:14:41;15.10;1.00
1461;DHT22;724;49.910;12.530;2023-09-19T07:17:07;14.70;99.90
1461;DHT22;724;49.910;12.530;2023-09-19T07:19:34;14.50;99.90
1461;DHT22;724;49.910;12.530;2023-09-19T07:22:01;14.40;99.90
1461;DHT22;724;49.910;12.530;2023-09-19T07:24:28;14.40;99.90
1461;DHT22;724;49.910;12.530;2023-09-19T07:26:56;14.50;99.90
1461;DHT22;724;49.910;12.530;2023-09-19T07:29:24;15.60;99.90
1461;DHT22;724;49.910;12.530;2023-09-19T07:31:51;15.80;99.90
1461;DHT22;724;49.910;12.530;2023-09-19T07:34:18;15.90;1.00
1461;DHT22;724;49.910;12.530;2023-09-19T07:36:46;15.20;15.40
1461;DHT22;724;49.910;12.530;2023-09-19T07:39:13;14.70;1.00
1461;DHT22;724;49.910;12.530;2023-09-19T07:41:39;14.50;99.90
1461;DHT22;724;49.910;12.530;2023-09-19T07:44:08;14.50;99.90
1461;DHT22;724;49.910;12.530;2023-09-19T07:46:36;14.40;99.90
1461;DHT22;724;49.910;12.530;2023-09-19T07:49:02;14.40;99.90
1461;DHT22;724;49.910;12.530;2023-09-19T07:51:30;14.60;99.90
1461;DHT22;724;49.910;12.530;2023-09-19T07:53:58;15.30;99.90
1461;DHT22;724;49.910;12.530;2023-09-19T07:56:25;15.90;99.90
1461;DHT22;724;49.910;12.530;2023-09-19T07:58:53;16.40;1.00
1461;DHT22;724;49.910;12.530;2023-09-19T08:01:21;16.80;1.00
1461;DHT22;724;49.910;12.530;2023-09-19T08:03:49;16.30;1.00
1461;DHT22;724;49.910;12.530;2023-09-19T08:06:16;17.00;1.00
1461;DHT22;724;49.910;12.530;2023-09-19T08:08:44;17.30;1.00
1461;DHT22;724;49.910;12.530;2023-09-19T08:11:11;16.50;1.00
1461;DHT22;724;49.910;12.530;2023-09-19T08:13:38;15.60;99.90
1461;DHT22;724;49.910;12.530;2023-09-19T08:16:09;15.60;1.00
1461;DHT22;724;49.910;12.530;2023-09-19T08:18:37;16.00;1.00
1461;DHT22;724;49.910;12.530;2023-09-19T08:21:05;16.30;1.00
1461;DHT22;724;49.910;12.530;2023-09-19T08:23:33;15.90;1.00
1461;DHT22;724;49.910;12.530;2023-09-19T08:26:00;16.20;99.90
1461;DHT22;724;49.910;12.530;2023-09-19T08:28:32;17.00;1.00
1461;DHT22;724;49.910;12.530;2023-09-19T08:31:02;17.40;1.00
1461;DHT22;724;49.910;12.530;2023-09-19T08:33:29;17.00;99.90
1461;DHT22;724;49.910;12.530;2023-09-19T08:35:58;17.00;99.90
1461;DHT22;724;49.910;12.530;2023-09-19T08:38:24;18.20;1.00
1461;DHT22;724;49.910;12.530;2023-09-19T08:40:57;18.90;1.00
1461;DHT22;724;49.910;12.530;2023-09-19T08:43:24;18.30;1.00
1461;DHT22;724;49.910;12.530;2023-09-19T08:45:54;18.20;1.00
1461;DHT22;724;49.910;12.530;2023-09-19T08:48:26;18.90;1.00
1461;DHT22;724;49.910;12.530;2023-09-19T08:51:03;18.70;99.90
1461;DHT22;724;49.910;12.530;2023-09-19T08:53:36;19.10;99.90
1461;DHT22;724;49.910;12.530;2023-09-19T08:56:10;20.20;99.90
1461;DHT22;724;49.910;12.530;2023-09-19T08:58:44;20.40;65.60
1461;DHT22;724;49.910;12.530;2023-09-19T09:01:15;19.40;59.70
1461;DHT22;724;49.910;12.530;2023-09-19T09:03:43;19.40;1.00
1461;DHT22;724;49.910;12.530;2023-09-19T09:06:13;20.90;1.00
1461;DHT22;724;49.910;12.530;2023-09-19T09:08:41;20.30;1.00
1461;DHT22;724;49.910;12.530;2023-09-19T09:11:09;19.40;1.00
1461;DHT22;724;49.910;12.530;2023-09-19T09:13:36;18.80;1.00
1461;DHT22;724;49.910;12.530;2023-09-19T09:16:04;18.90;1.00
1461;DHT22;724;49.910;12.530;2023-09-19T09:18:31;19.40;1.00
1461;DHT22;724;49.910;12.530;2023-09-19T09:20:58;18.90;1.00
1461;DHT22;724;49.910;12.530;2023-09-19T09:23:27;17.60;1.00
1461;DHT22;724;49.910;12.530;2023-09-19T09:25:56;18.30;1.00
1461;DHT22;724;49.910;12.530;2023-09-19T09:28:28;19.10;1.00
1461;DHT22;724;49.910;12.530;2023-09-19T09:30:56;19.70;1.00
1461;DHT22;724;49.910;12.530;2023-09-19T09:33:23;20.20;1.00
1461;DHT22;724;49.910;12.530;2023-09-19T09:35:51;20.60;1.00
1461;DHT22;724;49.910;12.530;2023-09-19T09:38:19;19.70;1.00
1461;DHT22;724;49.910;12.530;2023-09-19T09:40:48;19.70;1.00
1461;DHT22;724;49.910;12.530;2023-09-19T09:43:32;18.50;1.00
1461;DHT22;724;49.910;12.530;2023-09-19T09:46:12;17.80;1.00
1461;DHT22;724;49.910;12.530;2023-09-19T09:48:58;18.40;1.00
1461;DHT22;724;49.910;12.530;2023-09-19T09:51:44;18.20;1.00
1461;DHT22;724;49.910;12.530;2023-09-19T09:54:15;17.70;1.00
1461;DHT22;724;49.910;12.530;2023-09-19T09:56:57;17.70;1.00
1461;DHT22;724;49.910;12.530;2023-09-19T09:59:43;17.70;1.00
1461;DHT22;724;49.910;12.530;2023-09-19T10:02:11;18.20;1.00
1461;DHT22;724;49.910;12.530;2023-09-19T10:04:39;17.90;1.00
1461;DHT22;724;49.910;12.530;2023-09-19T10:07:27;17.80;1.00
1461;DHT22;724;49.910;12.530;2023-09-19T10:10:01;17.80;1.00
1461;DHT22;724;49.910;12.530;2023-09-19T10:12:43;17.40;1.00
1461;DHT22;724;49.910;12.530;2023-09-19T10:15:11;17.70;1.00
1461;DHT22;724;49.910;12.530;2023-09-19T10:17:42;17.70;1.00
1461;DHT22;724;49.910;12.530;2023-09-19T10:20:12;17.90;1.00
1461;DHT22;724;49.910;12.530;2023-09-19T10:22:50;19.10;1.00
1461;DHT22;724;49.910;12.530;2023-09-19T10:25:25;19.30;1.00
1461;DHT22;724;49.910;12.530;2023-09-19T10:27:56;19.80;1.00
1461;DHT22;724;49.910;12.530;2023-09-19T10:30:24;19.70;1.00
1461;DHT22;724;49.910;12.530;2023-09-19T10:33:00;19.80;1.00
1461;DHT22;724;49.910;12.530;2023-09-19T10:35:28;20.50;1.00
1461;DHT22;724;49.910;12.530;2023-09-19T10:37:57;20.40;1.00
1461;DHT22;724;49.910;12.530;2023-09-19T10:40:27;20.00;1.00
1461;DHT22;724;49.910;12.530;2023-09-19T10:43:02;20.40;1.00
1461;DHT22;724;49.910;12.530;2023-09-19T10:45:32;20.80;1.00
1461;DHT22;724;49.910;12.530;2023-09-19T10:47:59;20.10;1.00
1461;DHT22;724;49.910;12.530;2023-09-19T10:50:31;20.30;1.00
1461;DHT22;724;49.910;12.530;2023-09-19T10:53:00;20.80;1.00
1461;DHT22;724;49.910;12.530;2023-09-19T10:55:32;19.90;1.00
1461;DHT22;724;49.910;12.530;2023-09-19T10:58:02;19.30;1.00
1461;DHT22;724;49.910;12.530;2023-09-19T11:00:51;19.20;1.00
1461;DHT22;724;49.910;12.530;2023-09-19T11:03:19;19.20;1.00
1461;DHT22;724;49.910;12.530;2023-09-19T11:06:07;19.40;1.00
1461;DHT22;724;49.910;12.530;2023-09-19T11:08:55;20.20;1.00
1461;DHT22;724;49.910;12.530;2023-09-19T11:11:42;20.50;1.00
1461;DHT22;724;49.910;12.530;2023-09-19T11:14:37;20.00;1.00
1461;DHT22;724;49.910;12.530;2023-09-19T11:20:22;19.50;1.00
1461;DHT22;724;49.910;12.530;2023-09-19T11:23:23;18.90;1.00
1461;DHT22;724;49.910;12.530;2023-09-19T11:25:53;18.60;1.00
1461;DHT22;724;49.910;12.530;2023-09-19T11:28:33;18.50;1.00
1461;DHT22;724;49.910;12.530;2023-09-19T11:37:03;19.10;1.00
1461;DHT22;724;49.910;12.530;2023-09-19T11:39:30;18.80;1.00
1461;DHT22;724;49.910;12.530;2023-09-19T11:41:56;19.00;1.00
1461;DHT22;724;49.910;12.530;2023-09-19T11:44:33;19.00;1.00
1461;DHT22;724;49.910;12.530;2023-09-19T11:47:04;19.40;1.00
1461;DHT22;724;49.910;12.530;2023-09-19T11:49:33;19.30;1.00
1461;DHT22;724;49.910;12.530;2023-09-19T11:52:05;19.20;1.00
1461;DHT22;724;49.910;12.530;2023-09-19T11:54:34;19.30;1.00
1461;DHT22;724;49.910;12.530;2023-09-19T11:57:06;19.20;1.00
1461;DHT22;724;49.910;12.530;2023-09-19T11:59:38;19.10;1.00
1461;DHT22;724;49.910;12.530;2023-09-19T12:02:06;19.30;1.00
1461;DHT22;724;49.910;12.530;2023-09-19T12:04:35;19.30;1.00
1461;DHT22;724;49.910;12.530;2023-09-19T12:07:05;19.20;1.00
1461;DHT22;724;49.910;12.530;2023-09-19T12:09:39;19.40;1.00
1461;DHT22;724;49.910;12.530;2023-09-19T12:12:09;19.40;1.00
1461;DHT22;724;49.910;12.530;2023-09-19T12:14:38;19.30;1.00
1461;DHT22;724;49.910;12.530;2023-09-19T12:17:07;19.60;1.00
1461;DHT22;724;49.910;12.530;2023-09-19T12:19:34;19.70;1.00
1461;DHT22;724;49.910;12.530;2023-09-19T12:22:03;19.40;1.00
1461;DHT22;724;49.910;12.530;2023-09-19T12:24:31;19.60;1.00
1461;DHT22;724;49.910;12.530;2023-09-19T12:27:02;19.50;1.00
1461;DHT22;724;49.910;12.530;2023-09-19T12:29:32;19.50;1.00
1461;DHT22;724;49.910;12.530;2023-09-19T12:32:01;19.40;1.00
1461;DHT22;724;49.910;12.530;2023-09-19T12:34:32;19.10;1.00
1461;DHT22;724;49.910;12.530;2023-09-19T12:37:07;18.40;1.00
1461;DHT22;724;49.910;12.530;2023-09-19T12:39:38;18.80;1.00
1461;DHT22;724;49.910;12.530;2023-09-19T12:42:07;18.50;1.00
1461;DHT22;724;49.910;12.530;2023-09-19T12:44:36;19.10;1.00
1461;DHT22;724;49.910;12.530;2023-09-19T12:47:09;18.80;1.00
1461;DHT22;724;49.910;12.530;2023-09-19T12:49:41;18.80;1.00
1461;DHT22;724;49.910;12.530;2023-09-19T12:52:24;18.50;1.00
1461;DHT22;724;49.910;12.530;2023-09-19T12:54:51;18.30;1.00
1461;DHT22;724;49.910;12.530;2023-09-19T12:57:23;18.40;1.00
1461;DHT22;724;49.910;12.530;2023-09-19T12:59:52;18.50;1.00
1461;DHT22;724;49.910;12.530;2023-09-19T13:02:19;18.60;1.00
1461;DHT22;724;49.910;12.530;2023-09-19T13:04:52;19.00;1.00
1461;DHT22;724;49.910;12.530;2023-09-19T13:07:41;19.00;1.00
1461;DHT22;724;49.910;12.530;2023-09-19T13:10:12;19.00;1.00
1461;DHT22;724;49.910;12.530;2023-09-19T13:12:43;18.90;1.00
1461;DHT22;724;49.910;12.530;2023-09-19T13:15:14;18.30;1.00
1461;DHT22;724;49.910;12.530;2023-09-19T13:17:45;18.30;1.00
1461;DHT22;724;49.910;12.530;2023-09-19T13:20:23;18.40;1.00
1461;DHT22;724;49.910;12.530;2023-09-19T13:22:56;18.40;1.00
1461;DHT22;724;49.910;12.530;2023-09-19T13:25:26;18.20;1.00
1461;DHT22;724;49.910;12.530;2023-09-19T13:27:57;18.00;1.00
1461;DHT22;724;49.910;12.530;2023-09-19T13:30:26;18.30;1.00
1461;DHT22;724;49.910;12.530;2023-09-19T13:33:05;18.40;1.00
1461;DHT22;724;49.910;12.530;2023-09-19T13:35:32;18.60;1.00
1461;DHT22;724;49.910;12.530;2023-09-19T13:38:00;18.40;1.00
1461;DHT22;724;49.910;12.530;2023-09-19T13:40:27;18.50;1.00
1461;DHT22;724;49.910;12.530;2023-09-19T13:43:02;18.30;1.00
1461;DHT22;724;49.910;12.530;2023-09-19T13:45:31;18.20;1.00
1461;DHT22;724;49.910;12.530;2023-09-19T13:48:02;17.80;99.90
1461;DHT22;724;49.910;12.530;2023-09-19T13:50:28;17.90;1.00
1461;DHT22;724;49.910;12.530;2023-09-19T13:52:57;17.90;1.00
1461;DHT22;724;49.910;12.530;2023-09-19T13:55:27;18.00;1.00
1461;DHT22;724;49.910;12.530;2023-09-19T13:57:54;17.80;1.00
1461;DHT22;724;49.910;12.530;2023-09-19T14:00:23;17.80;1.00
1461;DHT22;724;49.910;12.530;2023-09-19T14:02:50;18.00;1.00
1461;DHT22;724;49.910;12.530;2023-09-19T14:05:17;17.90;1.00
1461;DHT22;724;49.910;12.530;2023-09-19T14:07:46;17.90;1.00
1461;DHT22;724;49.910;12.530;2023-09-19T14:10:13;17.70;1.00
1461;DHT22;724;49.910;12.530;2023-09-19T14:12:44;18.00;1.00
1461;DHT22;724;49.910;12.530;2023-09-19T14:15:11;18.20;99.90
1461;DHT22;724;49.910;12.530;2023-09-19T14:17:38;18.10;99.90
1461;DHT22;724;49.910;12.530;2023-09-19T14:20:08;17.90;99.90
1461;DHT22;724;49.910;12.530;2023-09-19T14:22:35;17.90;99.90
1461;DHT22;724;49.910;12.530;2023-09-19T14:25:03;18.00;99.90
1461;DHT22;724;49.910;12.530;2023-09-19T14:27:30;18.30;99.90
1461;DHT22;724;49.910;12.530;2023-09-19T14:29:58;18.70;99.90
1461;DHT22;724;49.910;12.530;2023-09-19T14:32:25;18.80;99.90
1461;DHT22;724;49.910;12.530;2023-09-19T14:34:51;18.50;99.90
1461;DHT22;724;49.910;12.530;2023-09-19T14:37:21;18.00;99.90
1461;DHT22;724;49.910;12.530;2023-09-19T14:39:47;18.10;99.90
1461;DHT22;724;49.910;12.530;2023-09-19T14:42:14;18.30;99.90
1461;DHT22;724;49.910;12.530;2023-09-19T14:44:43;18.30;99.90
1461;DHT22;724;49.910;12.530;2023-09-19T14:47:11;18.40;99.90
1461;DHT22;724;49.910;12.530;2023-09-19T14:49:39;18.40;99.90
1461;DHT22;724;49.910;12.530;2023-09-19T14:52:07;18.20;99.90
1461;DHT22;724;49.910;12.530;2023-09-19T14:54:34;18.30;99.90
1461;DHT22;724;49.910;12.530;2023-09-19T14:57:03;18.40;99.90
1461;DHT22;724;49.910;12.530;2023-09-19T14:59:30;18.40;99.90
1461;DHT22;724;49.910;12.530;2023-09-19T15:01:57;18.20;99.90
1461;DHT22;724;49.910;12.530;2023-09-19T15:04:27;18.20;99.90
1461;DHT22;724;49.910;12.530;2023-09-19T15:06:56;18.00;99.90
1461;DHT22;724;49.910;12.530;2023-09-19T15:09:23;18.00;99.90
1461;DHT22;724;49.910;12.530;2023-09-19T15:11:51;17.90;99.90
1461;DHT22;724;49.910;12.530;2023-09-19T15:14:18;17.80;99.90
1461;DHT22;724;49.910;12.530;2023-09-19T15:16:46;17.60;99.90
1461;DHT22;724;49.910;12.530;2023-09-19T15:19:13;17.40;99.90
1461;DHT22;724;49.910;12.530;2023-09-19T15:21:42;17.40;99.90
1461;DHT22;724;49.910;12.530;2023-09-19T15:24:09;17.40;99.90
1461;DHT22;724;49.910;12.530;2023-09-19T15:26:36;17.10;99.90
1461;DHT22;724;49.910;12.530;2023-09-19T15:29:05;17.20;99.90
1461;DHT22;724;49.910;12.530;2023-09-19T15:31:33;17.40;99.90
1461;DHT22;724;49.910;12.530;2023-09-19T15:34:01;17.30;99.90
1461;DHT22;724;49.910;12.530;2023-09-19T15:36:29;17.20;99.90
1461;DHT22;724;49.910;12.530;2023-09-19T15:38:58;17.20;99.90
1461;DHT22;724;49.910;12.530;2023-09-19T15:41:27;17.40;99.90
1461;DHT22;724;49.910;12.530;2023-09-19T15:43:54;17.40;99.90
1461;DHT22;724;49.910;12.530;2023-09-19T15:46:21;17.50;99.90
1461;DHT22;724;49.910;12.530;2023-09-19T15:48:48;17.50;99.90
1461;DHT22;724;49.910;12.530;2023-09-19T15:51:15;17.50;99.90
1461;DHT22;724;49.910;12.530;2023-09-19T15:53:44;17.40;99.90
1461;DHT22;724;49.910;12.530;2023-09-19T15:56:12;17.30;99.90
1461;DHT22;724;49.910;12.530;2023-09-19T15:58:39;17.20;99.90
1461;DHT22;724;49.910;12.530;2023-09-19T16:01:07;17.20;99.90
1461;DHT22;724;49.910;12.530;2023-09-19T16:03:34;17.30;99.90
1461;DHT22;724;49.910;12.530;2023-09-19T16:06:02;17.10;99.90
1461;DHT22;724;49.910;12.530;2023-09-19T16:08:34;16.90;99.90
1461;DHT22;724;49.910;12.530;2023-09-19T16:11:01;16.80;99.90
1461;DHT22;724;49.910;12.530;2023-09-19T16:13:29;16.60;99.90
1461;DHT22;724;49.910;12.530;2023-09-19T16:16:05;16.70;99.90
1461;DHT22;724;49.910;12.530;2023-09-19T16:18:33;16.70;99.90
1461;DHT22;724;49.910;12.530;2023-09-19T16:21:03;16.60;99.90
1461;DHT22;724;49.910;12.530;2023-09-19T16:23:30;16.50;99.90
1461;DHT22;724;49.910;12.530;2023-09-19T16:26:02;16.40;99.90
1461;DHT22;724;49.910;12.530;2023-09-19T16:28:32;16.30;99.90
1461;DHT22;724;49.910;12.530;2023-09-19T16:30:59;16.30;99.90
1461;DHT22;724;49.910;12.530;2023-09-19T16:33:27;16.10;99.90
1461;DHT22;724;49.910;12.530;2023-09-19T16:35:54;16.10;1.00
1461;DHT22;724;49.910;12.530;2023-09-19T16:38:21;16.10;1.00
1461;DHT22;724;49.910;12.530;2023-09-19T16:40:52;16.10;1.00
1461;DHT22;724;49.910;12.530;2023-09-19T16:43:19;16.10;1.00
1461;DHT22;724;49.910;12.530;2023-09-19T16:45:53;16.00;1.00
1461;DHT22;724;49.910;12.530;2023-09-19T16:48:20;15.80;1.00
1461;DHT22;724;49.910;12.530;2023-09-19T16:50:48;15.80;1.00
1461;DHT22;724;49.910;12.530;2023-09-19T16:53:15;15.60;1.00
1461;DHT22;724;49.910;12.530;2023-09-19T16:55:42;15.60;1.00
1461;DHT22;724;49.910;12.530;2023-09-19T16:58:09;15.60;1.00
1461;DHT22;724;49.910;12.530;2023-09-19T17:00:36;15.50;1.00
1461;DHT22;724;49.910;12.530;2023-09-19T17:03:05;15.50;1.00
1461;DHT22;724;49.910;12.530;2023-09-19T17:05:33;15.40;1.00
1461;DHT22;724;49.910;12.530;2023-09-19T17:08:00;15.30;1.00
1461;DHT22;724;49.910;12.530;2023-09-19T17:10:29;15.30;1.00
1461;DHT22;724;49.910;12.530;2023-09-19T17:12:58;15.30;1.00
1461;DHT22;724;49.910;12.530;2023-09-19T17:15:24;15.20;1.00
1461;DHT22;724;49.910;12.530;2023-09-19T17:17:55;15.10;1.00
1461;DHT22;724;49.910;12.530;2023-09-19T17:20:23;15.00;1.00
1461;DHT22;724;49.910;12.530;2023-09-19T17:22:50;14.90;1.00
1461;DHT22;724;49.910;12.530;2023-09-19T17:25:16;14.80;1.00
1461;DHT22;724;49.910;12.530;2023-09-19T17:27:43;14.70;1.00
1461;DHT22;724;49.910;12.530;2023-09-19T17:30:11;14.70;1.00
1461;DHT22;724;49.910;12.530;2023-09-19T17:32:40;14.70;1.00
1461;DHT22;724;49.910;12.530;2023-09-19T17:35:07;14.60;1.00
1461;DHT22;724;49.910;12.530;2023-09-19T17:37:36;14.50;1.00
1461;DHT22;724;49.910;12.530;2023-09-19T17:40:06;14.40;1.00
1461;DHT22;724;49.910;12.530;2023-09-19T17:42:36;14.40;1.00
1461;DHT22;724;49.910;12.530;2023-09-19T17:45:03;14.30;1.00
1461;DHT22;724;49.910;12.530;2023-09-19T17:47:30;14.30;1.00
1461;DHT22;724;49.910;12.530;2023-09-19T17:49:58;14.20;1.00
1461;DHT22;724;49.910;12.530;2023-09-19T17:52:26;14.10;1.00
1461;DHT22;724;49.910;12.530;2023-09-19T17:54:56;14.10;1.00
1461;DHT22;724;49.910;12.530;2023-09-19T17:57:24;14.10;1.00
1461;DHT22;724;49.910;12.530;2023-09-19T17:59:51;14.10;1.00
1461;DHT22;724;49.910;12.530;2023-09-19T18:02:18;13.90;23.20
1461;DHT22;724;49.910;12.530;2023-09-19T18:04:46;13.80;86.40
1461;DHT22;724;49.910;12.530;2023-09-19T18:07:12;13.80;90.10
1461;DHT22;724;49.910;12.530;2023-09-19T18:09:39;13.70;99.90
1461;DHT22;724;49.910;12.530;2023-09-19T18:12:08;13.60;99.90
1461;DHT22;724;49.910;12.530;2023-09-19T18:14:35;13.60;99.90
1461;DHT22;724;49.910;12.530;2023-09-19T18:17:05;13.40;99.90
1461;DHT22;724;49.910;12.530;2023-09-19T18:19:31;13.40;99.90
1461;DHT22;724;49.910;12.530;2023-09-19T18:21:58;13.10;99.90